Time;durP1;ratioP1;P1;durP2;ratioP2;P2;SDS_P1;SDS_P2;PMS_P1;PMS_P2;Temp;Humidity;BMP_temperature;BMP_pressure;BME280_temperature;BME280_humidity;BME280_pressure;Samples;Min_cycle;Max_cycle;Signal;HPM_P1;HPM_P2
2023/02/28 00:01:21;;;;;;;;;;;;;;;;;;5031779;28;19909;-59
2023/02/28 00:03:47;;;;;;;;;;;;;;;;;;5032984;28;19909;-58
2023/02/28 00:06:13;;;;;;;;;;;;;;;;;;5032416;28;19932;-58
2023/02/28 00:08:39;;;;;;;;;;;;;;;;;;5032639;28;19952;-58
2023/02/28 00:11:05;;;;;;;;;;;;;;;;;;5010600;28;20000;-59
2023/02/28 00:13:31;;;;;;;;;;;;;;;;;;5012865;28;19959;-59
2023/02/28 00:15:57;;;;;;;;;;;;;;;;;;5012431;28;19965;-59
2023/02/28 00:18:23;;;;;;;;;;;;;;;;;;5012443;28;19956;-58
2023/02/28 00:20:49;;;;;;;;;;;;;;;;;;5012400;28;19913;-59
2023/02/28 00:23:14;;;;;;;;;;;;;;;;;;5011805;28;19978;-58
2023/02/28 00:25:40;;;;;;;;;;;;;;;;;;5012721;28;19913;-59
2023/02/28 00:28:06;;;;;;;;;;;;;;;;;;5011763;28;20442;-58
2023/02/28 00:30:32;;;;;;;;;;;;;;;;;;5011278;28;19918;-59
2023/02/28 00:32:59;;;;;;;;;;;;;;;;;;5008200;28;20320;-59
2023/02/28 00:35:25;;;;;;;;;;;;;;;;;;5012015;28;20273;-58
2023/02/28 00:37:50;;;;;;;;;;;;;;;;;;4996088;28;19917;-58
2023/02/28 00:40:16;;;;;;;;;;;;;;;;;;5009731;28;19967;-58
2023/02/28 00:42:42;;;;;;;;;;;;;;;;;;5012528;28;19914;-58
2023/02/28 00:45:08;;;;;;;;;;;;;;;;;;5010088;28;19914;-59
2023/02/28 00:47:34;;;;;;;;;;;;;;;;;;5009695;28;20392;-59
2023/02/28 00:50:00;;;;;;;;;;;;;;;;;;5009704;28;19921;-59
2023/02/28 00:52:26;;;;;;;;;;;;;;;;;;5011668;28;19910;-59
2023/02/28 00:54:52;;;;;;;;;;;;;;;;;;5012725;28;20732;-59
2023/02/28 00:57:18;;;;;;;;;;;;;;;;;;5012460;28;19917;-59
2023/02/28 00:59:43;;;;;;;;;;;;;;;;;;5012140;28;19996;-58
2023/02/28 01:02:09;;;;;;;;;;;;;;;;;;5008829;28;20381;-58
2023/02/28 01:04:35;;;;;;;;;;;;;;;;;;5012287;28;20018;-59
2023/02/28 01:07:01;;;;;;;;;;;;;;;;;;5012170;28;20023;-59
2023/02/28 01:09:27;;;;;;;;;;;;;;;;;;5012311;28;20017;-58
2023/02/28 01:11:53;;;;;;;;;;;;;;;;;;5030550;28;19922;-58
2023/02/28 01:14:19;;;;;;;;;;;;;;;;;;5014329;28;19916;-59
2023/02/28 01:16:45;;;;;;;;;;;;;;;;;;5031687;28;19917;-59
2023/02/28 01:19:11;;;;;;;;;;;;;;;;;;5030551;28;19968;-58
2023/02/28 01:21:37;;;;;;;;;;;;;;;;;;5031204;28;19913;-58
2023/02/28 01:24:02;;;;;;;;;;;;;;;;;;5032002;28;20411;-59
2023/02/28 01:26:28;;;;;;;;;;;;;;;;;;5031854;28;19999;-59
2023/02/28 01:28:54;;;;;;;;;;;;;;;;;;5034441;28;20708;-59
2023/02/28 01:31:20;;;;;;;;;;;;;;;;;;5034344;28;20451;-59
2023/02/28 01:33:46;;;;;;;;;;;;;;;;;;5034333;28;19913;-59
2023/02/28 01:36:12;;;;;;;;;;;;;;;;;;5034831;28;19944;-59
2023/02/28 01:38:38;;;;;;;;;;;;;;;;;;5035586;28;19960;-58
2023/02/28 01:41:04;;;;;;;;;;;;;;;;;;5035318;28;19909;-59
2023/02/28 01:43:30;;;;;;;;;;;;;;;;;;5035325;28;19920;-59
2023/02/28 01:45:55;;;;;;;;;;;;;;;;;;5035210;28;19920;-59
2023/02/28 01:48:21;;;;;;;;;;;;;;;;;;5035289;28;20311;-58
2023/02/28 01:50:48;;;;;;;;;;;;;;;;;;5034153;28;19976;-59
2023/02/28 01:53:14;;;;;;;;;;;;;;;;;;5033253;28;20339;-59
2023/02/28 01:55:40;;;;;;;;;;;;;;;;;;5033872;28;19921;-59
2023/02/28 01:58:06;;;;;;;;;;;;;;;;;;5033382;28;19921;-58
2023/02/28 02:00:32;;;;;;;;;;;;;;;;;;5034225;28;20308;-61
2023/02/28 02:02:57;;;;;;;;;;;;;;;;;;5030888;28;19953;-62
2023/02/28 02:05:23;;;;;;;;;;;;;;;;;;5033590;28;19920;-61
2023/02/28 02:07:49;;;;;;;;;;;;;;;;;;5033594;28;20375;-62
2023/02/28 02:10:15;;;;;;;;;;;;;;;;;;5034492;28;19932;-61
2023/02/28 02:12:41;;;;;;;;;;;;;;;;;;5035132;28;19913;-62
2023/02/28 02:15:08;;;;;;;;;;;;;;;;;;5032741;28;19917;-62
2023/02/28 02:17:34;;;;;;;;;;;;;;;;;;5033729;28;19913;-62
2023/02/28 02:20:01;;;;;;;;;;;;;;;;;;5034614;28;20004;-61
2023/02/28 02:22:27;;;;;;;;;;;;;;;;;;5034317;28;19913;-62
2023/02/28 02:24:53;;;;;;;;;;;;;;;;;;5034687;28;19920;-61
2023/02/28 02:27:19;;;;;;;;;;;;;;;;;;5034757;28;20250;-62
2023/02/28 02:29:45;;;;;;;;;;;;;;;;;;5034073;28;19920;-61
2023/02/28 02:32:11;;;;;;;;;;;;;;;;;;5032495;28;19953;-62
2023/02/28 02:34:37;;;;;;;;;;;;;;;;;;5033253;28;19956;-61
2023/02/28 02:37:03;;;;;;;;;;;;;;;;;;5034272;28;19909;-61
2023/02/28 02:39:29;;;;;;;;;;;;;;;;;;5033366;28;20361;-62
2023/02/28 02:41:54;;;;;;;;;;;;;;;;;;5033667;28;19919;-61
2023/02/28 02:44:21;;;;;;;;;;;;;;;;;;5034192;28;20327;-61
2023/02/28 02:46:47;;;;;;;;;;;;;;;;;;5034120;28;19913;-63
2023/02/28 02:49:13;;;;;;;;;;;;;;;;;;5031116;28;20006;-61
2023/02/28 02:51:39;;;;;;;;;;;;;;;;;;5033657;28;19992;-62
2023/02/28 02:54:04;;;;;;;;;;;;;;;;;;5034168;28;19944;-61
2023/02/28 02:56:30;;;;;;;;;;;;;;;;;;5034265;28;19944;-61
2023/02/28 02:58:56;;;;;;;;;;;;;;;;;;5034076;28;19923;-62
2023/02/28 03:01:27;;;;;;;;;;;;;;;;;;5032667;28;20004;-62
2023/02/28 03:03:53;;;;;;;;;;;;;;;;;;5030292;28;19913;-62
2023/02/28 03:06:18;;;;;;;;;;;;;;;;;;5034160;28;19921;-61
2023/02/28 03:08:44;;;;;;;;;;;;;;;;;;5033566;28;20342;-62
2023/02/28 03:11:12;;;;;;;;;;;;;;;;;;5033346;28;20015;-61
2023/02/28 03:13:38;;;;;;;;;;;;;;;;;;5033705;28;19955;-62
2023/02/28 03:16:03;;;;;;;;;;;;;;;;;;5033596;28;19916;-61
2023/02/28 03:18:29;;;;;;;;;;;;;;;;;;5028186;28;19936;-62
2023/02/28 03:20:55;;;;;;;;;;;;;;;;;;5015621;28;20365;-61
2023/02/28 03:23:21;;;;;;;;;;;;;;;;;;5015537;28;20080;-62
2023/02/28 03:25:47;;;;;;;;;;;;;;;;;;5030655;28;19949;-61
2023/02/28 03:28:13;;;;;;;;;;;;;;;;;;5032677;28;20275;-62
2023/02/28 03:30:39;;;;;;;;;;;;;;;;;;5032860;28;19931;-62
2023/02/28 03:33:05;;;;;;;;;;;;;;;;;;5032673;28;19979;-61
2023/02/28 03:35:31;;;;;;;;;;;;;;;;;;5033306;28;20430;-61
2023/02/28 03:37:56;;;;;;;;;;;;;;;;;;5033107;28;19913;-61
2023/02/28 03:40:22;;;;;;;;;;;;;;;;;;5032943;28;20288;-62
2023/02/28 03:42:48;;;;;;;;;;;;;;;;;;5031841;28;19956;-62
2023/02/28 03:45:14;;;;;;;;;;;;;;;;;;5033109;28;19921;-61
2023/02/28 03:47:40;;;;;;;;;;;;;;;;;;5032887;28;19961;-62
2023/02/28 03:50:06;;;;;;;;;;;;;;;;;;5032839;28;19944;-61
2023/02/28 03:52:32;;;;;;;;;;;;;;;;;;5032670;28;19916;-62
2023/02/28 03:55:00;;;;;;;;;;;;;;;;;;5033105;28;19948;-61
2023/02/28 03:57:26;;;;;;;;;;;;;;;;;;5032782;28;19913;-62
2023/02/28 03:59:52;;;;;;;;;;;;;;;;;;5031233;28;19928;-62
2023/02/28 04:02:18;;;;;;;;;;;;;;;;;;5032621;28;20546;-61
2023/02/28 04:04:48;;;;;;;;;;;;;;;;;;5031420;28;19920;-61
2023/02/28 04:07:14;;;;;;;;;;;;;;;;;;5030243;28;19917;-62
2023/02/28 04:09:39;;;;;;;;;;;;;;;;;;5031024;28;19917;-61
2023/02/28 04:12:05;;;;;;;;;;;;;;;;;;5030849;28;19955;-61
2023/02/28 04:14:31;;;;;;;;;;;;;;;;;;5030026;28;19959;-61
2023/02/28 04:16:57;;;;;;;;;;;;;;;;;;5031102;28;20323;-61
2023/02/28 04:19:23;;;;;;;;;;;;;;;;;;5031970;28;19917;-61
2023/02/28 04:21:49;;;;;;;;;;;;;;;;;;5030544;28;19931;-61
2023/02/28 04:24:15;;;;;;;;;;;;;;;;;;5031892;28;19913;-61
2023/02/28 04:26:43;;;;;;;;;;;;;;;;;;5031409;28;19909;-62
2023/02/28 04:29:09;;;;;;;;;;;;;;;;;;5032457;28;19917;-62
2023/02/28 04:31:35;;;;;;;;;;;;;;;;;;5025755;28;19925;-61
2023/02/28 04:34:01;;;;;;;;;;;;;;;;;;5029914;28;20376;-61
2023/02/28 04:36:26;;;;;;;;;;;;;;;;;;5032501;28;20288;-62
2023/02/28 04:38:52;;;;;;;;;;;;;;;;;;5032254;28;19963;-62
2023/02/28 04:41:18;;;;;;;;;;;;;;;;;;5031840;28;19952;-62
2023/02/28 04:43:44;;;;;;;;;;;;;;;;;;5032322;28;19932;-61
2023/02/28 04:46:10;;;;;;;;;;;;;;;;;;5032158;28;20373;-61
2023/02/28 04:48:36;;;;;;;;;;;;;;;;;;5031055;28;20007;-61
2023/02/28 04:51:02;;;;;;;;;;;;;;;;;;5031672;28;19944;-61
2023/02/28 04:53:28;;;;;;;;;;;;;;;;;;5031528;28;20012;-61
2023/02/28 04:55:54;;;;;;;;;;;;;;;;;;5032008;28;20016;-61
2023/02/28 04:58:22;;;;;;;;;;;;;;;;;;5032140;28;20362;-61
2023/02/28 05:00:48;;;;;;;;;;;;;;;;;;5031785;28;19961;-61
2023/02/28 05:03:14;;;;;;;;;;;;;;;;;;5022286;28;20090;-61
2023/02/28 05:05:40;;;;;;;;;;;;;;;;;;5029194;28;20359;-61
2023/02/28 05:08:06;;;;;;;;;;;;;;;;;;5033412;28;19995;-61
2023/02/28 05:10:32;;;;;;;;;;;;;;;;;;5034329;28;19921;-61
2023/02/28 05:12:58;;;;;;;;;;;;;;;;;;5033433;28;19909;-61
2023/02/28 05:15:24;;;;;;;;;;;;;;;;;;5034307;28;20277;-61
2023/02/28 05:17:50;;;;;;;;;;;;;;;;;;5028670;28;19975;-61
2023/02/28 05:20:16;;;;;;;;;;;;;;;;;;5030082;28;19940;-61
2023/02/28 05:22:42;;;;;;;;;;;;;;;;;;5034203;28;20412;-61
2023/02/28 05:25:08;;;;;;;;;;;;;;;;;;5034589;28;19909;-61
2023/02/28 05:27:34;;;;;;;;;;;;;;;;;;5034970;28;19952;-61
2023/02/28 05:30:03;;;;;;;;;;;;;;;;;;5034614;28;19924;-61
2023/02/28 05:32:29;;;;;;;;;;;;;;;;;;5031939;28;20436;-61
2023/02/28 05:34:55;;;;;;;;;;;;;;;;;;5031327;28;20002;-61
2023/02/28 05:37:20;;;;;;;;;;;;;;;;;;5031719;28;19916;-61
2023/02/28 05:39:46;;;;;;;;;;;;;;;;;;5029569;28;19921;-61
2023/02/28 05:42:12;;;;;;;;;;;;;;;;;;5033718;28;20411;-61
2023/02/28 05:44:38;;;;;;;;;;;;;;;;;;5033944;28;19999;-61
2023/02/28 05:47:04;;;;;;;;;;;;;;;;;;5033674;28;19943;-61
2023/02/28 05:49:30;;;;;;;;;;;;;;;;;;5033152;28;20365;-61
2023/02/28 05:51:56;;;;;;;;;;;;;;;;;;5033194;28;19923;-61
2023/02/28 05:54:22;;;;;;;;;;;;;;;;;;5031934;28;19921;-61
2023/02/28 05:56:48;;;;;;;;;;;;;;;;;;5031652;28;19963;-61
2023/02/28 05:59:14;;;;;;;;;;;;;;;;;;5029089;28;20380;-61
2023/02/28 06:01:39;;;;;;;;;;;;;;;;;;5032706;28;19917;-61
2023/02/28 06:04:05;;;;;;;;;;;;;;;;;;5033347;28;20304;-61
2023/02/28 06:06:33;;;;;;;;;;;;;;;;;;5029714;28;20014;-61
2023/02/28 06:09:00;;;;;;;;;;;;;;;;;;5032206;28;19924;-61
2023/02/28 06:11:26;;;;;;;;;;;;;;;;;;5032022;28;19922;-61
2023/02/28 06:13:52;;;;;;;;;;;;;;;;;;5033695;28;20377;-61
2023/02/28 06:16:18;;;;;;;;;;;;;;;;;;5027823;28;19971;-61
2023/02/28 06:18:44;;;;;;;;;;;;;;;;;;5029470;28;19925;-61
2023/02/28 06:21:10;;;;;;;;;;;;;;;;;;5032272;28;20466;-61
2023/02/28 06:23:36;;;;;;;;;;;;;;;;;;5031006;28;19949;-61
2023/02/28 06:26:02;;;;;;;;;;;;;;;;;;5024428;28;19917;-61
2023/02/28 06:28:28;;;;;;;;;;;;;;;;;;5032734;28;20014;-61
2023/02/28 06:30:54;;;;;;;;;;;;;;;;;;5028862;28;19956;-61
2023/02/28 06:33:20;;;;;;;;;;;;;;;;;;5031238;28;19953;-61
2023/02/28 06:35:45;;;;;;;;;;;;;;;;;;5028495;28;20015;-61
2023/02/28 06:38:11;;;;;;;;;;;;;;;;;;5030692;28;19921;-61
2023/02/28 06:40:37;;;;;;;;;;;;;;;;;;5031937;28;19960;-61
2023/02/28 06:43:03;;;;;;;;;;;;;;;;;;5031139;28;20411;-61
2023/02/28 06:45:29;;;;;;;;;;;;;;;;;;5026628;28;19921;-61
2023/02/28 06:47:55;;;;;;;;;;;;;;;;;;5033066;28;20354;-61
2023/02/28 06:50:21;;;;;;;;;;;;;;;;;;5031991;28;19917;-61
2023/02/28 06:52:47;;;;;;;;;;;;;;;;;;5032183;28;19917;-61
2023/02/28 06:55:13;;;;;;;;;;;;;;;;;;5032009;28;20395;-61
2023/02/28 06:57:39;;;;;;;;;;;;;;;;;;5033425;28;19947;-61
2023/02/28 07:00:05;;;;;;;;;;;;;;;;;;5027278;28;19956;-61
2023/02/28 07:02:31;;;;;;;;;;;;;;;;;;5029107;28;19921;-61
2023/02/28 07:04:57;;;;;;;;;;;;;;;;;;5031586;28;19913;-61
2023/02/28 07:07:23;;;;;;;;;;;;;;;;;;5031098;28;20450;-61
2023/02/28 07:09:49;;;;;;;;;;;;;;;;;;5013139;28;20040;-61
2023/02/28 07:12:15;;;;;;;;;;;;;;;;;;5031986;28;19913;-61
2023/02/28 07:14:41;;;;;;;;;;;;;;;;;;5031278;28;19917;-61
2023/02/28 07:17:06;;;;;;;;;;;;;;;;;;5029215;28;19999;-62
2023/02/28 07:19:32;;;;;;;;;;;;;;;;;;5029016;28;19917;-61
2023/02/28 07:21:59;;;;;;;;;;;;;;;;;;5030254;28;20396;-61
2023/02/28 07:24:28;;;;;;;;;;;;;;;;;;5011737;28;19913;-61
2023/02/28 07:26:54;;;;;;;;;;;;;;;;;;5031424;28;20376;-61
2023/02/28 07:29:19;;;;;;;;;;;;;;;;;;5032634;28;19957;-62
2023/02/28 07:31:46;;;;;;;;;;;;;;;;;;5028884;28;20372;-62
2023/02/28 07:34:12;;;;;;;;;;;;;;;;;;5031135;28;19913;-61
2023/02/28 07:36:38;;;;;;;;;;;;;;;;;;5030602;28;19948;-61
2023/02/28 07:39:04;;;;;;;;;;;;;;;;;;5030231;28;20018;-61
2023/02/28 07:41:32;;;;;;;;;;;;;;;;;;5025486;28;20356;-62
2023/02/28 07:43:59;;;;;;;;;;;;;;;;;;5031422;28;20373;-61
2023/02/28 07:46:25;;;;;;;;;;;;;;;;;;5030571;28;19914;-61
2023/02/28 07:48:51;;;;;;;;;;;;;;;;;;5030657;28;20384;-61
2023/02/28 07:51:17;;;;;;;;;;;;;;;;;;5029801;28;19924;-61
2023/02/28 07:53:43;;;;;;;;;;;;;;;;;;5031405;28;19967;-62
2023/02/28 07:56:10;;;;;;;;;;;;;;;;;;5030260;28;20381;-62
2023/02/28 07:58:36;;;;;;;;;;;;;;;;;;5024076;28;20162;-62
2023/02/28 08:01:02;;;;;;;;;;;;;;;;;;5025469;28;20412;-62
2023/02/28 08:03:28;;;;;;;;;;;;;;;;;;5010052;28;19921;-62
2023/02/28 08:05:54;;;;;;;;;;;;;;;;;;5032180;28;19994;-62
2023/02/28 08:08:19;;;;;;;;;;;;;;;;;;5028490;28;20341;-62
2023/02/28 08:10:45;;;;;;;;;;;;;;;;;;5031550;28;19921;-61
2023/02/28 08:13:11;;;;;;;;;;;;;;;;;;5031545;28;20356;-61
2023/02/28 08:15:37;;;;;;;;;;;;;;;;;;5031779;28;19956;-62
2023/02/28 08:18:03;;;;;;;;;;;;;;;;;;5028748;28;19921;-62
2023/02/28 08:20:29;;;;;;;;;;;;;;;;;;5011781;28;20004;-62
2023/02/28 08:22:55;;;;;;;;;;;;;;;;;;5012186;28;19909;-62
2023/02/28 08:25:21;;;;;;;;;;;;;;;;;;5027243;28;20339;-61
2023/02/28 08:27:47;;;;;;;;;;;;;;;;;;5028731;28;20003;-61
2023/02/28 08:30:13;;;;;;;;;;;;;;;;;;5030478;28;19913;-62
2023/02/28 08:32:38;;;;;;;;;;;;;;;;;;5027765;28;19910;-61
2023/02/28 08:35:04;;;;;;;;;;;;;;;;;;5019903;28;19986;-62
2023/02/28 08:37:30;;;;;;;;;;;;;;;;;;5029017;28;19972;-62
2023/02/28 08:39:56;;;;;;;;;;;;;;;;;;5030619;28;20075;-62
2023/02/28 08:42:22;;;;;;;;;;;;;;;;;;5031436;28;19956;-61
2023/02/28 08:44:48;;;;;;;;;;;;;;;;;;5029060;28;19971;-62
2023/02/28 08:47:14;;;;;;;;;;;;;;;;;;5030588;28;20357;-62
2023/02/28 08:49:40;;;;;;;;;;;;;;;;;;5029560;28;19958;-62
2023/02/28 08:52:06;;;;;;;;;;;;;;;;;;5029558;28;20280;-62
2023/02/28 08:54:33;;;;;;;;;;;;;;;;;;5031346;28;19909;-61
2023/02/28 08:56:59;;;;;;;;;;;;;;;;;;5029790;28;19967;-61
2023/02/28 08:59:24;;;;;;;;;;;;;;;;;;5028740;28;19956;-62
2023/02/28 09:01:50;;;;;;;;;;;;;;;;;;5027753;28;20406;-62
2023/02/28 09:04:16;;;;;;;;;;;;;;;;;;5029982;28;19913;-62
2023/02/28 09:06:42;;;;;;;;;;;;;;;;;;5028203;28;20411;-59
2023/02/28 09:09:09;;;;;;;;;;;;;;;;;;5031266;28;20355;-59
2023/02/28 09:11:35;;;;;;;;;;;;;;;;;;5030014;28;19929;-59
2023/02/28 09:14:03;;;;;;;;;;;;;;;;;;5029041;28;20368;-59
2023/02/28 09:16:28;;;;;;;;;;;;;;;;;;5030413;28;19913;-59
2023/02/28 09:18:54;;;;;;;;;;;;;;;;;;5029545;28;19963;-58
2023/02/28 09:21:20;;;;;;;;;;;;;;;;;;5030015;28;19917;-59
2023/02/28 09:23:46;;;;;;;;;;;;;;;;;;5031116;28;19940;-59
2023/02/28 09:26:12;;;;;;;;;;;;;;;;;;5031313;28;19963;-59
2023/02/28 09:28:38;;;;;;;;;;;;;;;;;;5027443;28;20012;-59
2023/02/28 09:31:04;;;;;;;;;;;;;;;;;;5029692;28;19917;-59
2023/02/28 09:33:30;;;;;;;;;;;;;;;;;;5028661;28;20392;-59
2023/02/28 09:35:56;;;;;;;;;;;;;;;;;;5030833;28;19976;-59
2023/02/28 09:38:22;;;;;;;;;;;;;;;;;;5028537;28;19963;-59
2023/02/28 09:40:48;;;;;;;;;;;;;;;;;;5030615;28;19954;-58
2023/02/28 09:43:14;;;;;;;;;;;;;;;;;;5030593;28;19939;-59
2023/02/28 09:45:39;;;;;;;;;;;;;;;;;;5026090;28;19956;-59
2023/02/28 09:48:05;;;;;;;;;;;;;;;;;;5027891;28;20387;-59
2023/02/28 09:50:32;;;;;;;;;;;;;;;;;;5034036;28;19909;-59
2023/02/28 09:52:58;;;;;;;;;;;;;;;;;;5034470;28;20284;-59
2023/02/28 09:55:24;;;;;;;;;;;;;;;;;;5034205;28;20003;-59
2023/02/28 09:57:50;;;;;;;;;;;;;;;;;;5029917;28;19975;-59
2023/02/28 10:00:16;;;;;;;;;;;;;;;;;;5029304;28;19917;-59
2023/02/28 10:02:42;;;;;;;;;;;;;;;;;;5015370;28;20003;-59
2023/02/28 10:05:08;;;;;;;;;;;;;;;;;;5030449;28;19959;-59
2023/02/28 10:07:34;;;;;;;;;;;;;;;;;;5030519;28;20346;-59
2023/02/28 10:10:00;;;;;;;;;;;;;;;;;;5032521;28;19960;-59
2023/02/28 10:12:26;;;;;;;;;;;;;;;;;;5032782;28;19972;-59
2023/02/28 10:14:52;;;;;;;;;;;;;;;;;;5034134;28;19909;-59
2023/02/28 10:17:19;;;;;;;;;;;;;;;;;;5031542;28;20003;-59
2023/02/28 10:19:45;;;;;;;;;;;;;;;;;;5033883;28;20415;-59
2023/02/28 10:22:11;;;;;;;;;;;;;;;;;;5030202;28;19956;-59
2023/02/28 10:24:37;;;;;;;;;;;;;;;;;;5031899;28;19963;-59
2023/02/28 10:27:03;;;;;;;;;;;;;;;;;;5030920;28;20283;-59
2023/02/28 10:29:29;;;;;;;;;;;;;;;;;;5032215;28;19956;-59
2023/02/28 10:31:55;;;;;;;;;;;;;;;;;;5032958;28;19920;-59
2023/02/28 10:34:21;;;;;;;;;;;;;;;;;;5031276;28;20444;-59
2023/02/28 10:36:47;;;;;;;;;;;;;;;;;;5032401;28;20007;-59
2023/02/28 10:39:13;;;;;;;;;;;;;;;;;;5033139;28;19978;-59
2023/02/28 10:41:39;;;;;;;;;;;;;;;;;;5032486;28;19955;-59
2023/02/28 10:44:05;;;;;;;;;;;;;;;;;;5021904;28;19917;-59
2023/02/28 10:46:31;;;;;;;;;;;;;;;;;;5033413;28;20012;-59
2023/02/28 10:48:57;;;;;;;;;;;;;;;;;;5032409;28;19921;-59
2023/02/28 10:51:23;;;;;;;;;;;;;;;;;;5032808;28;20541;-59
2023/02/28 10:53:49;;;;;;;;;;;;;;;;;;5031014;28;20006;-59
2023/02/28 10:56:16;;;;;;;;;;;;;;;;;;5033068;28;19945;-59
2023/02/28 10:58:42;;;;;;;;;;;;;;;;;;5031464;28;20276;-59
2023/02/28 11:01:08;;;;;;;;;;;;;;;;;;5031807;28;19920;-59
2023/02/28 11:03:34;;;;;;;;;;;;;;;;;;5032644;28;19913;-59
2023/02/28 11:05:59;;;;;;;;;;;;;;;;;;5032212;28;19947;-59
2023/02/28 11:08:25;;;;;;;;;;;;;;;;;;5032470;28;20461;-59
2023/02/28 11:10:51;;;;;;;;;;;;;;;;;;5032481;28;19928;-59
2023/02/28 11:13:18;;;;;;;;;;;;;;;;;;5030663;28;20399;-59
2023/02/28 11:15:45;;;;;;;;;;;;;;;;;;5031214;28;19909;-60
2023/02/28 11:18:11;;;;;;;;;;;;;;;;;;5032763;28;20349;-60
2023/02/28 11:20:37;;;;;;;;;;;;;;;;;;5031982;28;19948;-60
2023/02/28 11:23:02;;;;;;;;;;;;;;;;;;5032886;28;19913;-57
2023/02/28 11:25:28;;;;;;;;;;;;;;;;;;5033025;28;19963;-60
2023/02/28 11:27:54;;;;;;;;;;;;;;;;;;5030392;28;19913;-59
2023/02/28 11:30:20;;;;;;;;;;;;;;;;;;5030708;28;19925;-59
2023/02/28 11:32:46;;;;;;;;;;;;;;;;;;5031471;28;19968;-59
2023/02/28 11:35:12;;;;;;;;;;;;;;;;;;5032060;28;19960;-59
2023/02/28 11:37:38;;;;;;;;;;;;;;;;;;5032550;28;20440;-59
2023/02/28 11:40:04;;;;;;;;;;;;;;;;;;5028805;28;20008;-59
2023/02/28 11:42:31;;;;;;;;;;;;;;;;;;5032494;28;19909;-58
2023/02/28 11:44:57;;;;;;;;;;;;;;;;;;5031773;28;19917;-60
2023/02/28 11:47:23;;;;;;;;;;;;;;;;;;5014579;28;20387;-59
2023/02/28 11:49:49;;;;;;;;;;;;;;;;;;5029272;28;19921;-60
2023/02/28 11:52:15;;;;;;;;;;;;;;;;;;5032355;28;19969;-59
2023/02/28 11:54:41;;;;;;;;;;;;;;;;;;5032069;28;19999;-59
2023/02/28 11:57:07;;;;;;;;;;;;;;;;;;5032000;28;19914;-59
2023/02/28 11:59:33;;;;;;;;;;;;;;;;;;5029060;28;19975;-60
2023/02/28 12:01:59;;;;;;;;;;;;;;;;;;5029117;28;19919;-58
2023/02/28 12:04:25;;;;;;;;;;;;;;;;;;5031445;28;19919;-59
2023/02/28 12:06:51;;;;;;;;;;;;;;;;;;5031269;28;19936;-60
2023/02/28 12:09:17;;;;;;;;;;;;;;;;;;5031460;28;19913;-59
2023/02/28 12:11:44;;;;;;;;;;;;;;;;;;5028709;28;20391;-60
2023/02/28 12:14:09;;;;;;;;;;;;;;;;;;5031423;28;20388;-60
2023/02/28 12:16:35;;;;;;;;;;;;;;;;;;5031413;28;19917;-60
2023/02/28 12:19:01;;;;;;;;;;;;;;;;;;5031324;28;20016;-60
2023/02/28 12:21:27;;;;;;;;;;;;;;;;;;5031600;28;20399;-60
2023/02/28 12:23:53;;;;;;;;;;;;;;;;;;5031056;28;20011;-60
2023/02/28 12:26:19;;;;;;;;;;;;;;;;;;5030042;28;20377;-60
2023/02/28 12:28:46;;;;;;;;;;;;;;;;;;5010960;28;19913;-60
2023/02/28 12:31:12;;;;;;;;;;;;;;;;;;5029357;28;19913;-59
2023/02/28 12:33:38;;;;;;;;;;;;;;;;;;5027182;28;19963;-59
2023/02/28 12:36:04;;;;;;;;;;;;;;;;;;5025513;28;19914;-59
2023/02/28 12:38:30;;;;;;;;;;;;;;;;;;5027853;28;19918;-57
2023/02/28 12:40:55;;;;;;;;;;;;;;;;;;5031042;28;19967;-57
2023/02/28 12:43:21;;;;;;;;;;;;;;;;;;5029695;28;19917;-57
2023/02/28 12:45:48;;;;;;;;;;;;;;;;;;5024787;28;20538;-57
2023/02/28 12:48:14;;;;;;;;;;;;;;;;;;5022897;28;19923;-59
2023/02/28 12:50:40;;;;;;;;;;;;;;;;;;5029205;28;19996;-57
2023/02/28 12:53:06;;;;;;;;;;;;;;;;;;5027447;28;20296;-59
2023/02/28 12:55:31;;;;;;;;;;;;;;;;;;5026597;28;19913;-57
2023/02/28 12:57:57;;;;;;;;;;;;;;;;;;5022390;28;19940;-57
2023/02/28 13:00:23;;;;;;;;;;;;;;;;;;5029807;28;19919;-57
2023/02/28 13:02:49;;;;;;;;;;;;;;;;;;5024394;28;19913;-57
2023/02/28 13:05:15;;;;;;;;;;;;;;;;;;5028559;28;19960;-57
2023/02/28 13:07:41;;;;;;;;;;;;;;;;;;5024478;28;20466;-57
2023/02/28 13:10:07;;;;;;;;;;;;;;;;;;5025948;28;19925;-57
2023/02/28 13:12:33;;;;;;;;;;;;;;;;;;5028377;28;19913;-57
2023/02/28 13:14:59;;;;;;;;;;;;;;;;;;5010452;28;19924;-57
2023/02/28 13:17:25;;;;;;;;;;;;;;;;;;5025411;28;20376;-57
2023/02/28 13:19:51;;;;;;;;;;;;;;;;;;5027732;28;19924;-57
2023/02/28 13:22:17;;;;;;;;;;;;;;;;;;5029492;28;19956;-59
2023/02/28 13:24:43;;;;;;;;;;;;;;;;;;5030608;28;19917;-59
2023/02/28 13:27:09;;;;;;;;;;;;;;;;;;5032249;28;19959;-60
2023/02/28 13:29:35;;;;;;;;;;;;;;;;;;5033634;28;20361;-60
2023/02/28 13:32:01;;;;;;;;;;;;;;;;;;5032952;28;19957;-59
2023/02/28 13:34:27;;;;;;;;;;;;;;;;;;5034673;28;20352;-59
2023/02/28 13:36:55;;;;;;;;;;;;;;;;;;5031920;28;19940;-57
2023/02/28 13:39:20;;;;;;;;;;;;;;;;;;5032564;28;20338;-57
2023/02/28 13:41:46;;;;;;;;;;;;;;;;;;5028612;28;20026;-60
2023/02/28 13:44:12;;;;;;;;;;;;;;;;;;5030612;28;19949;-60
2023/02/28 13:46:38;;;;;;;;;;;;;;;;;;5031019;28;20002;-60
2023/02/28 13:49:04;;;;;;;;;;;;;;;;;;5026333;28;19948;-59
2023/02/28 13:51:30;;;;;;;;;;;;;;;;;;5030110;28;20897;-59
2023/02/28 13:53:56;;;;;;;;;;;;;;;;;;5032770;28;19913;-59
2023/02/28 13:56:22;;;;;;;;;;;;;;;;;;5034189;28;19995;-59
2023/02/28 13:58:48;;;;;;;;;;;;;;;;;;5027220;28;19972;-59
2023/02/28 14:01:14;;;;;;;;;;;;;;;;;;5032488;28;19944;-59
2023/02/28 14:03:40;;;;;;;;;;;;;;;;;;5031520;28;20169;-59
2023/02/28 14:06:06;;;;;;;;;;;;;;;;;;5032414;28;20387;-59
2023/02/28 14:08:32;;;;;;;;;;;;;;;;;;5031646;28;19920;-58
2023/02/28 14:10:57;;;;;;;;;;;;;;;;;;5029834;28;19964;-58
2023/02/28 14:13:23;;;;;;;;;;;;;;;;;;5028930;28;20008;-58
2023/02/28 14:15:49;;;;;;;;;;;;;;;;;;5024300;28;19919;-58
2023/02/28 14:18:15;;;;;;;;;;;;;;;;;;5028711;28;19960;-59
2023/02/28 14:20:41;;;;;;;;;;;;;;;;;;5027293;28;19968;-59
2023/02/28 14:23:07;;;;;;;;;;;;;;;;;;5026149;28;19974;-59
2023/02/28 14:25:33;;;;;;;;;;;;;;;;;;5021521;28;20369;-59
2023/02/28 14:27:59;;;;;;;;;;;;;;;;;;5031158;28;20059;-59
2023/02/28 14:30:25;;;;;;;;;;;;;;;;;;5029005;28;19921;-59
2023/02/28 14:32:50;;;;;;;;;;;;;;;;;;5031603;28;20352;-59
2023/02/28 14:35:16;;;;;;;;;;;;;;;;;;5030143;28;20011;-59
2023/02/28 14:37:42;;;;;;;;;;;;;;;;;;5030890;28;19913;-59
2023/02/28 14:40:08;;;;;;;;;;;;;;;;;;5030320;28;20004;-59
2023/02/28 14:42:34;;;;;;;;;;;;;;;;;;5030626;28;19964;-59
2023/02/28 14:45:00;;;;;;;;;;;;;;;;;;5031914;28;19966;-59
2023/02/28 14:47:26;;;;;;;;;;;;;;;;;;5030553;28;19913;-59
2023/02/28 14:49:52;;;;;;;;;;;;;;;;;;5030480;28;19944;-59
2023/02/28 14:52:18;;;;;;;;;;;;;;;;;;5027060;28;20376;-59
2023/02/28 14:54:45;;;;;;;;;;;;;;;;;;5031247;28;19956;-59
2023/02/28 14:57:11;;;;;;;;;;;;;;;;;;5030942;28;19963;-59
2023/02/28 14:59:37;;;;;;;;;;;;;;;;;;5027791;28;20460;-59
2023/02/28 15:02:02;;;;;;;;;;;;;;;;;;5031649;28;19920;-59
2023/02/28 15:04:30;;;;;;;;;;;;;;;;;;5032098;28;19955;-59
2023/02/28 15:06:56;;;;;;;;;;;;;;;;;;5028506;28;19913;-59
2023/02/28 15:09:22;;;;;;;;;;;;;;;;;;5032372;28;19967;-59
2023/02/28 15:11:48;;;;;;;;;;;;;;;;;;5026471;28;20284;-59
2023/02/28 15:14:14;;;;;;;;;;;;;;;;;;5027768;28;19924;-59
2023/02/28 15:16:40;;;;;;;;;;;;;;;;;;5027982;28;19925;-58
2023/02/28 15:19:06;;;;;;;;;;;;;;;;;;5030469;28;20022;-59
2023/02/28 15:21:32;;;;;;;;;;;;;;;;;;5031070;28;19956;-59
2023/02/28 15:23:58;;;;;;;;;;;;;;;;;;5032164;28;19913;-59
2023/02/28 15:26:24;;;;;;;;;;;;;;;;;;5030117;28;20438;-59
2023/02/28 15:28:49;;;;;;;;;;;;;;;;;;5024336;28;19924;-59
2023/02/28 15:31:15;;;;;;;;;;;;;;;;;;5026147;28;19952;-59
2023/02/28 15:33:41;;;;;;;;;;;;;;;;;;5027875;28;19923;-59
2023/02/28 15:36:07;;;;;;;;;;;;;;;;;;5030090;28;19917;-58
2023/02/28 15:38:33;;;;;;;;;;;;;;;;;;5014552;28;19967;-59
2023/02/28 15:40:59;;;;;;;;;;;;;;;;;;5030576;28;19962;-58
2023/02/28 15:43:25;;;;;;;;;;;;;;;;;;5029138;28;19921;-59
2023/02/28 15:45:51;;;;;;;;;;;;;;;;;;5029738;28;20388;-61
2023/02/28 15:48:17;;;;;;;;;;;;;;;;;;5026390;28;20018;-60
2023/02/28 15:50:43;;;;;;;;;;;;;;;;;;5030610;28;19945;-60
2023/02/28 15:53:09;;;;;;;;;;;;;;;;;;5030870;28;19944;-60
2023/02/28 15:55:36;;;;;;;;;;;;;;;;;;5029823;28;20434;-60
2023/02/28 15:58:02;;;;;;;;;;;;;;;;;;5028342;28;20004;-60
2023/02/28 16:00:28;;;;;;;;;;;;;;;;;;5022077;28;20007;-60
2023/02/28 16:02:54;;;;;;;;;;;;;;;;;;5027064;28;19967;-60
2023/02/28 16:05:27;;;;;;;;;;;;;;;;;;5023609;28;20002;-60
2023/02/28 16:07:53;;;;;;;;;;;;;;;;;;5029471;28;19921;-60
2023/02/28 16:10:19;;;;;;;;;;;;;;;;;;5026554;28;19925;-60
2023/02/28 16:12:45;;;;;;;;;;;;;;;;;;5030807;28;19913;-60
2023/02/28 16:15:12;;;;;;;;;;;;;;;;;;5030085;28;20381;-60
2023/02/28 16:17:37;;;;;;;;;;;;;;;;;;5026436;28;19913;-60
2023/02/28 16:20:04;;;;;;;;;;;;;;;;;;5028614;28;20361;-60
2023/02/28 16:22:29;;;;;;;;;;;;;;;;;;5029704;28;20481;-59
2023/02/28 16:24:55;;;;;;;;;;;;;;;;;;5031610;28;19944;-60
2023/02/28 16:27:21;;;;;;;;;;;;;;;;;;5023106;28;20003;-60
2023/02/28 16:29:47;;;;;;;;;;;;;;;;;;5013160;28;19964;-60
2023/02/28 16:32:13;;;;;;;;;;;;;;;;;;5027247;28;19952;-60
2023/02/28 16:34:39;;;;;;;;;;;;;;;;;;5030084;28;19927;-60
2023/02/28 16:37:05;;;;;;;;;;;;;;;;;;5026229;28;20004;-60